sensor_id;sensor_type;location;lat;lon;timestamp;temperature;humidity
45843;DHT22;31563;51.744;8.252;2023-06-10T00:00:12;28.80;47.30
45843;DHT22;31563;51.744;8.252;2023-06-10T00:02:41;28.80;47.40
45843;DHT22;31563;51.744;8.252;2023-06-10T00:05:11;28.80;47.40
45843;DHT22;31563;51.744;8.252;2023-06-10T00:07:39;28.80;47.40
45843;DHT22;31563;51.744;8.252;2023-06-10T00:10:08;28.80;47.40
45843;DHT22;31563;51.744;8.252;2023-06-10T00:12:39;28.80;47.50
45843;DHT22;31563;51.744;8.252;2023-06-10T00:15:09;28.80;47.50
45843;DHT22;31563;51.744;8.252;2023-06-10T00:17:38;28.70;47.40
45843;DHT22;31563;51.744;8.252;2023-06-10T00:20:08;28.70;47.50
45843;DHT22;31563;51.744;8.252;2023-06-10T00:22:39;28.70;47.50
45843;DHT22;31563;51.744;8.252;2023-06-10T00:25:09;28.60;47.50
45843;DHT22;31563;51.744;8.252;2023-06-10T00:27:39;28.70;47.60
45843;DHT22;31563;51.744;8.252;2023-06-10T00:30:08;28.60;47.50
45843;DHT22;31563;51.744;8.252;2023-06-10T00:32:37;28.60;47.60
45843;DHT22;31563;51.744;8.252;2023-06-10T00:35:06;28.60;47.60
45843;DHT22;31563;51.744;8.252;2023-06-10T00:37:34;28.60;47.70
45843;DHT22;31563;51.744;8.252;2023-06-10T00:40:04;28.60;47.80
45843;DHT22;31563;51.744;8.252;2023-06-10T00:42:32;28.60;47.70
45843;DHT22;31563;51.744;8.252;2023-06-10T00:45:02;28.60;47.80
45843;DHT22;31563;51.744;8.252;2023-06-10T00:47:31;28.60;47.70
45843;DHT22;31563;51.744;8.252;2023-06-10T00:49:59;28.50;47.70
45843;DHT22;31563;51.744;8.252;2023-06-10T00:52:28;28.50;47.80
45843;DHT22;31563;51.744;8.252;2023-06-10T00:54:57;28.50;47.80
45843;DHT22;31563;51.744;8.252;2023-06-10T00:57:27;28.50;47.80
45843;DHT22;31563;51.744;8.252;2023-06-10T00:59:57;28.50;47.90
45843;DHT22;31563;51.744;8.252;2023-06-10T01:02:27;28.50;47.90
45843;DHT22;31563;51.744;8.252;2023-06-10T01:04:55;28.50;47.90
45843;DHT22;31563;51.744;8.252;2023-06-10T01:07:30;28.50;47.90
45843;DHT22;31563;51.744;8.252;2023-06-10T01:10:05;28.40;47.80
45843;DHT22;31563;51.744;8.252;2023-06-10T01:12:41;28.40;48.00
45843;DHT22;31563;51.744;8.252;2023-06-10T01:15:09;28.40;47.90
45843;DHT22;31563;51.744;8.252;2023-06-10T01:17:58;28.40;47.90
45843;DHT22;31563;51.744;8.252;2023-06-10T01:20:27;28.40;48.00
45843;DHT22;31563;51.744;8.252;2023-06-10T01:22:57;28.30;47.90
45843;DHT22;31563;51.744;8.252;2023-06-10T01:25:27;28.30;48.00
45843;DHT22;31563;51.744;8.252;2023-06-10T01:28:04;28.30;48.10
45843;DHT22;31563;51.744;8.252;2023-06-10T01:30:46;28.30;48.10
45843;DHT22;31563;51.744;8.252;2023-06-10T01:33:19;28.30;48.10
45843;DHT22;31563;51.744;8.252;2023-06-10T01:35:50;28.30;48.10
45843;DHT22;31563;51.744;8.252;2023-06-10T01:38:21;28.20;47.20
45843;DHT22;31563;51.744;8.252;2023-06-10T01:40:52;28.10;44.20
45843;DHT22;31563;51.744;8.252;2023-06-10T01:43:20;28.00;45.00
45843;DHT22;31563;51.744;8.252;2023-06-10T01:45:49;28.00;46.40
45843;DHT22;31563;51.744;8.252;2023-06-10T01:48:17;28.00;46.70
45843;DHT22;31563;51.744;8.252;2023-06-10T01:50:45;28.10;46.90
45843;DHT22;31563;51.744;8.252;2023-06-10T01:53:13;28.00;47.10
45843;DHT22;31563;51.744;8.252;2023-06-10T01:55:43;28.10;47.00
45843;DHT22;31563;51.744;8.252;2023-06-10T01:58:11;28.10;47.10
45843;DHT22;31563;51.744;8.252;2023-06-10T02:00:40;28.00;47.10
45843;DHT22;31563;51.744;8.252;2023-06-10T02:03:08;28.00;47.20
45843;DHT22;31563;51.744;8.252;2023-06-10T02:05:36;28.00;47.20
45843;DHT22;31563;51.744;8.252;2023-06-10T02:08:05;28.00;47.20
45843;DHT22;31563;51.744;8.252;2023-06-10T02:10:33;28.00;47.30
45843;DHT22;31563;51.744;8.252;2023-06-10T02:13:03;28.00;47.40
45843;DHT22;31563;51.744;8.252;2023-06-10T02:15:31;28.00;47.50
45843;DHT22;31563;51.744;8.252;2023-06-10T02:17:59;28.00;47.60
45843;DHT22;31563;51.744;8.252;2023-06-10T02:20:29;28.00;47.70
45843;DHT22;31563;51.744;8.252;2023-06-10T02:22:58;27.90;47.60
45843;DHT22;31563;51.744;8.252;2023-06-10T02:25:26;27.90;47.70
45843;DHT22;31563;51.744;8.252;2023-06-10T02:27:55;27.90;47.80
45843;DHT22;31563;51.744;8.252;2023-06-10T02:30:24;27.90;47.80
45843;DHT22;31563;51.744;8.252;2023-06-10T02:32:52;27.90;47.80
45843;DHT22;31563;51.744;8.252;2023-06-10T02:35:23;27.90;47.90
45843;DHT22;31563;51.744;8.252;2023-06-10T02:37:51;27.90;48.00
45843;DHT22;31563;51.744;8.252;2023-06-10T02:40:20;27.90;48.10
45843;DHT22;31563;51.744;8.252;2023-06-10T02:42:48;27.80;48.10
45843;DHT22;31563;51.744;8.252;2023-06-10T02:45:16;27.80;48.10
45843;DHT22;31563;51.744;8.252;2023-06-10T02:47:46;27.80;48.20
45843;DHT22;31563;51.744;8.252;2023-06-10T02:50:14;27.80;48.20
45843;DHT22;31563;51.744;8.252;2023-06-10T02:52:42;27.70;48.20
45843;DHT22;31563;51.744;8.252;2023-06-10T02:55:10;27.80;48.20
45843;DHT22;31563;51.744;8.252;2023-06-10T02:57:38;27.70;48.20
45843;DHT22;31563;51.744;8.252;2023-06-10T03:00:07;27.70;48.20
45843;DHT22;31563;51.744;8.252;2023-06-10T03:02:38;27.70;48.30
45843;DHT22;31563;51.744;8.252;2023-06-10T03:05:08;27.70;48.30
45843;DHT22;31563;51.744;8.252;2023-06-10T03:07:38;27.70;48.30
45843;DHT22;31563;51.744;8.252;2023-06-10T03:10:07;27.70;48.40
45843;DHT22;31563;51.744;8.252;2023-06-10T03:12:35;27.60;48.30
45843;DHT22;31563;51.744;8.252;2023-06-10T03:15:04;27.60;48.40
45843;DHT22;31563;51.744;8.252;2023-06-10T03:17:34;27.70;48.50
45843;DHT22;31563;51.744;8.252;2023-06-10T03:20:02;27.60;48.40
45843;DHT22;31563;51.744;8.252;2023-06-10T03:22:33;27.60;48.50
45843;DHT22;31563;51.744;8.252;2023-06-10T03:25:01;27.60;48.50
45843;DHT22;31563;51.744;8.252;2023-06-10T03:27:29;27.60;48.50
45843;DHT22;31563;51.744;8.252;2023-06-10T03:29:58;27.60;48.60
45843;DHT22;31563;51.744;8.252;2023-06-10T03:32:26;27.60;48.60
45843;DHT22;31563;51.744;8.252;2023-06-10T03:34:54;27.60;48.60
45843;DHT22;31563;51.744;8.252;2023-06-10T03:37:24;27.60;48.60
45843;DHT22;31563;51.744;8.252;2023-06-10T03:39:54;27.50;48.60
45843;DHT22;31563;51.744;8.252;2023-06-10T03:42:22;27.50;48.60
45843;DHT22;31563;51.744;8.252;2023-06-10T03:44:50;27.50;48.70
45843;DHT22;31563;51.744;8.252;2023-06-10T03:47:18;27.60;48.70
45843;DHT22;31563;51.744;8.252;2023-06-10T03:49:46;27.50;48.60
45843;DHT22;31563;51.744;8.252;2023-06-10T03:52:14;27.50;48.60
45843;DHT22;31563;51.744;8.252;2023-06-10T03:54:42;27.50;48.60
45843;DHT22;31563;51.744;8.252;2023-06-10T03:57:12;27.50;48.70
45843;DHT22;31563;51.744;8.252;2023-06-10T03:59:40;27.50;48.70
45843;DHT22;31563;51.744;8.252;2023-06-10T04:02:08;27.50;48.60
45843;DHT22;31563;51.744;8.252;2023-06-10T04:04:36;27.50;48.60
45843;DHT22;31563;51.744;8.252;2023-06-10T04:07:05;27.50;48.60
45843;DHT22;31563;51.744;8.252;2023-06-10T04:09:34;27.50;48.70
45843;DHT22;31563;51.744;8.252;2023-06-10T04:12:03;27.50;47.90
45843;DHT22;31563;51.744;8.252;2023-06-10T04:14:34;27.30;44.90
45843;DHT22;31563;51.744;8.252;2023-06-10T04:17:04;27.20;44.70
45843;DHT22;31563;51.744;8.252;2023-06-10T04:19:33;27.10;43.90
45843;DHT22;31563;51.744;8.252;2023-06-10T04:22:02;27.00;43.50
45843;DHT22;31563;51.744;8.252;2023-06-10T04:24:30;27.00;43.90
45843;DHT22;31563;51.744;8.252;2023-06-10T04:26:59;26.90;43.20
45843;DHT22;31563;51.744;8.252;2023-06-10T04:29:27;26.90;42.90
45843;DHT22;31563;51.744;8.252;2023-06-10T04:31:56;26.90;43.50
45843;DHT22;31563;51.744;8.252;2023-06-10T04:34:24;27.00;43.40
45843;DHT22;31563;51.744;8.252;2023-06-10T04:36:53;27.00;43.20
45843;DHT22;31563;51.744;8.252;2023-06-10T04:39:22;27.00;43.10
45843;DHT22;31563;51.744;8.252;2023-06-10T04:41:50;27.00;42.90
45843;DHT22;31563;51.744;8.252;2023-06-10T04:44:18;27.00;42.70
45843;DHT22;31563;51.744;8.252;2023-06-10T04:46:46;27.00;42.60
45843;DHT22;31563;51.744;8.252;2023-06-10T04:49:17;27.00;42.70
45843;DHT22;31563;51.744;8.252;2023-06-10T04:51:45;27.10;42.60
45843;DHT22;31563;51.744;8.252;2023-06-10T04:54:13;27.00;42.40
45843;DHT22;31563;51.744;8.252;2023-06-10T04:56:42;27.00;42.10
45843;DHT22;31563;51.744;8.252;2023-06-10T04:59:10;27.00;42.30
45843;DHT22;31563;51.744;8.252;2023-06-10T05:01:38;27.10;42.30
45843;DHT22;31563;51.744;8.252;2023-06-10T05:04:06;27.00;42.10
45843;DHT22;31563;51.744;8.252;2023-06-10T05:06:36;27.10;42.00
45843;DHT22;31563;51.744;8.252;2023-06-10T05:09:04;27.00;41.90
45843;DHT22;31563;51.744;8.252;2023-06-10T05:11:32;27.00;42.00
45843;DHT22;31563;51.744;8.252;2023-06-10T05:14:00;27.10;41.90
45843;DHT22;31563;51.744;8.252;2023-06-10T05:16:29;27.10;41.90
45843;DHT22;31563;51.744;8.252;2023-06-10T05:18:57;27.10;41.90
45843;DHT22;31563;51.744;8.252;2023-06-10T05:21:25;27.10;41.90
45843;DHT22;31563;51.744;8.252;2023-06-10T05:23:55;27.10;41.90
45843;DHT22;31563;51.744;8.252;2023-06-10T05:26:23;27.10;41.70
45843;DHT22;31563;51.744;8.252;2023-06-10T05:28:52;27.10;41.80
45843;DHT22;31563;51.744;8.252;2023-06-10T05:31:20;27.10;41.90
45843;DHT22;31563;51.744;8.252;2023-06-10T05:33:48;27.10;42.30
45843;DHT22;31563;51.744;8.252;2023-06-10T05:36:17;27.10;42.60
45843;DHT22;31563;51.744;8.252;2023-06-10T05:38:46;27.10;42.90
45843;DHT22;31563;51.744;8.252;2023-06-10T05:41:15;27.20;43.20
45843;DHT22;31563;51.744;8.252;2023-06-10T05:43:43;27.20;42.60
45843;DHT22;31563;51.744;8.252;2023-06-10T05:46:12;27.20;42.10
45843;DHT22;31563;51.744;8.252;2023-06-10T05:48:41;27.20;42.10
45843;DHT22;31563;51.744;8.252;2023-06-10T05:51:09;27.20;42.20
45843;DHT22;31563;51.744;8.252;2023-06-10T05:53:37;27.20;42.00
45843;DHT22;31563;51.744;8.252;2023-06-10T05:56:06;27.20;42.10
45843;DHT22;31563;51.744;8.252;2023-06-10T05:58:36;27.20;41.80
45843;DHT22;31563;51.744;8.252;2023-06-10T06:01:04;27.20;41.80
45843;DHT22;31563;51.744;8.252;2023-06-10T06:03:32;27.30;42.00
45843;DHT22;31563;51.744;8.252;2023-06-10T06:06:02;27.30;41.80
45843;DHT22;31563;51.744;8.252;2023-06-10T06:08:30;27.30;41.80
45843;DHT22;31563;51.744;8.252;2023-06-10T06:10:58;27.40;41.90
45843;DHT22;31563;51.744;8.252;2023-06-10T06:13:26;27.40;41.70
45843;DHT22;31563;51.744;8.252;2023-06-10T06:15:56;27.40;41.60
45843;DHT22;31563;51.744;8.252;2023-06-10T06:18:24;27.50;41.70
45843;DHT22;31563;51.744;8.252;2023-06-10T06:20:52;27.60;42.00
45843;DHT22;31563;51.744;8.252;2023-06-10T06:23:20;27.60;42.10
45843;DHT22;31563;51.744;8.252;2023-06-10T06:25:48;27.60;41.80
45843;DHT22;31563;51.744;8.252;2023-06-10T06:28:17;27.70;41.80
45843;DHT22;31563;51.744;8.252;2023-06-10T06:30:46;27.70;41.80
45843;DHT22;31563;51.744;8.252;2023-06-10T06:33:15;27.70;41.90
45843;DHT22;31563;51.744;8.252;2023-06-10T06:35:43;27.70;41.60
45843;DHT22;31563;51.744;8.252;2023-06-10T06:38:12;27.70;41.70
45843;DHT22;31563;51.744;8.252;2023-06-10T06:40:40;27.80;41.50
45843;DHT22;31563;51.744;8.252;2023-06-10T06:43:08;27.80;41.60
45843;DHT22;31563;51.744;8.252;2023-06-10T06:45:36;27.90;41.50
45843;DHT22;31563;51.744;8.252;2023-06-10T06:48:05;27.90;41.40
45843;DHT22;31563;51.744;8.252;2023-06-10T06:50:35;28.00;41.50
45843;DHT22;31563;51.744;8.252;2023-06-10T06:53:03;28.00;41.40
45843;DHT22;31563;51.744;8.252;2023-06-10T06:55:31;28.10;41.30
45843;DHT22;31563;51.744;8.252;2023-06-10T06:58:00;28.10;41.20
45843;DHT22;31563;51.744;8.252;2023-06-10T07:00:31;28.20;41.20
45843;DHT22;31563;51.744;8.252;2023-06-10T07:02:59;28.20;41.10
45843;DHT22;31563;51.744;8.252;2023-06-10T07:05:28;28.20;41.00
45843;DHT22;31563;51.744;8.252;2023-06-10T07:07:59;28.20;40.70
45843;DHT22;31563;51.744;8.252;2023-06-10T07:10:28;28.30;40.70
45843;DHT22;31563;51.744;8.252;2023-06-10T07:12:56;28.30;40.90
45843;DHT22;31563;51.744;8.252;2023-06-10T07:15:24;28.40;40.50
45843;DHT22;31563;51.744;8.252;2023-06-10T07:17:52;28.40;40.40
45843;DHT22;31563;51.744;8.252;2023-06-10T07:20:20;28.50;40.50
45843;DHT22;31563;51.744;8.252;2023-06-10T07:22:49;28.50;40.50
45843;DHT22;31563;51.744;8.252;2023-06-10T07:25:18;28.50;40.60
45843;DHT22;31563;51.744;8.252;2023-06-10T07:27:46;28.60;40.60
45843;DHT22;31563;51.744;8.252;2023-06-10T07:30:15;28.70;40.70
45843;DHT22;31563;51.744;8.252;2023-06-10T07:32:43;28.70;40.40
45843;DHT22;31563;51.744;8.252;2023-06-10T07:35:12;28.80;40.30
45843;DHT22;31563;51.744;8.252;2023-06-10T07:37:40;28.80;40.20
45843;DHT22;31563;51.744;8.252;2023-06-10T07:40:09;28.90;40.40
45843;DHT22;31563;51.744;8.252;2023-06-10T07:42:38;28.90;40.20
45843;DHT22;31563;51.744;8.252;2023-06-10T07:45:07;29.00;40.20
45843;DHT22;31563;51.744;8.252;2023-06-10T07:47:35;29.00;40.00
45843;DHT22;31563;51.744;8.252;2023-06-10T07:50:04;29.10;39.90
45843;DHT22;31563;51.744;8.252;2023-06-10T07:52:32;29.10;40.00
45843;DHT22;31563;51.744;8.252;2023-06-10T07:55:01;29.10;39.80
45843;DHT22;31563;51.744;8.252;2023-06-10T07:57:29;29.10;39.60
45843;DHT22;31563;51.744;8.252;2023-06-10T07:59:59;29.10;39.60
45843;DHT22;31563;51.744;8.252;2023-06-10T08:02:30;29.10;39.70
45843;DHT22;31563;51.744;8.252;2023-06-10T08:04:58;29.20;39.60
45843;DHT22;31563;51.744;8.252;2023-06-10T08:07:27;29.30;39.40
45843;DHT22;31563;51.744;8.252;2023-06-10T08:09:55;29.30;39.20
45843;DHT22;31563;51.744;8.252;2023-06-10T08:12:23;29.40;39.50
45843;DHT22;31563;51.744;8.252;2023-06-10T08:14:51;29.40;39.60
45843;DHT22;31563;51.744;8.252;2023-06-10T08:17:22;29.50;39.60
45843;DHT22;31563;51.744;8.252;2023-06-10T08:19:50;29.50;39.30
45843;DHT22;31563;51.744;8.252;2023-06-10T08:22:18;29.50;39.20
45843;DHT22;31563;51.744;8.252;2023-06-10T08:24:46;29.60;39.10
45843;DHT22;31563;51.744;8.252;2023-06-10T08:27:15;29.60;39.30
45843;DHT22;31563;51.744;8.252;2023-06-10T08:29:43;29.70;39.30
45843;DHT22;31563;51.744;8.252;2023-06-10T08:32:11;29.70;39.10
45843;DHT22;31563;51.744;8.252;2023-06-10T08:34:41;29.80;39.10
45843;DHT22;31563;51.744;8.252;2023-06-10T08:37:09;29.80;39.30
45843;DHT22;31563;51.744;8.252;2023-06-10T08:39:37;30.00;39.40
45843;DHT22;31563;51.744;8.252;2023-06-10T08:42:13;30.10;39.20
45843;DHT22;31563;51.744;8.252;2023-06-10T08:44:46;30.20;39.10
45843;DHT22;31563;51.744;8.252;2023-06-10T08:47:15;30.30;38.80
45843;DHT22;31563;51.744;8.252;2023-06-10T08:49:46;30.40;38.80
45843;DHT22;31563;51.744;8.252;2023-06-10T08:52:16;30.40;38.80
45843;DHT22;31563;51.744;8.252;2023-06-10T08:54:50;30.50;38.80
45843;DHT22;31563;51.744;8.252;2023-06-10T08:57:20;30.60;38.90
45843;DHT22;31563;51.744;8.252;2023-06-10T08:59:48;30.70;38.90
45843;DHT22;31563;51.744;8.252;2023-06-10T09:02:17;30.80;38.90
45843;DHT22;31563;51.744;8.252;2023-06-10T09:04:49;30.90;39.00
45843;DHT22;31563;51.744;8.252;2023-06-10T09:07:18;30.90;38.90
45843;DHT22;31563;51.744;8.252;2023-06-10T09:09:46;31.10;39.00
45843;DHT22;31563;51.744;8.252;2023-06-10T09:12:15;31.10;38.90
45843;DHT22;31563;51.744;8.252;2023-06-10T09:14:43;31.20;38.90
45843;DHT22;31563;51.744;8.252;2023-06-10T09:17:11;31.30;39.00
45843;DHT22;31563;51.744;8.252;2023-06-10T09:19:40;31.40;38.90
45843;DHT22;31563;51.744;8.252;2023-06-10T09:22:10;31.40;38.80
45843;DHT22;31563;51.744;8.252;2023-06-10T09:24:39;31.50;38.80
45843;DHT22;31563;51.744;8.252;2023-06-10T09:27:08;31.60;38.70
45843;DHT22;31563;51.744;8.252;2023-06-10T09:29:46;31.70;38.60
45843;DHT22;31563;51.744;8.252;2023-06-10T09:32:17;31.70;38.60
45843;DHT22;31563;51.744;8.252;2023-06-10T09:34:46;31.80;38.40
45843;DHT22;31563;51.744;8.252;2023-06-10T09:37:21;31.90;38.50
45843;DHT22;31563;51.744;8.252;2023-06-10T09:40:03;31.90;38.40
45843;DHT22;31563;51.744;8.252;2023-06-10T09:42:33;32.00;38.10
45843;DHT22;31563;51.744;8.252;2023-06-10T09:45:02;31.90;38.00
45843;DHT22;31563;51.744;8.252;2023-06-10T09:47:31;32.00;38.20
45843;DHT22;31563;51.744;8.252;2023-06-10T09:49:59;31.90;38.10
45843;DHT22;31563;51.744;8.252;2023-06-10T09:52:29;31.90;38.10
45843;DHT22;31563;51.744;8.252;2023-06-10T09:55:01;32.10;38.20
45843;DHT22;31563;51.744;8.252;2023-06-10T09:57:31;32.10;38.30
45843;DHT22;31563;51.744;8.252;2023-06-10T10:00:04;32.10;38.20
45843;DHT22;31563;51.744;8.252;2023-06-10T10:02:44;32.20;38.30
45843;DHT22;31563;51.744;8.252;2023-06-10T10:05:14;32.30;38.50
45843;DHT22;31563;51.744;8.252;2023-06-10T10:07:44;32.30;38.40
45843;DHT22;31563;51.744;8.252;2023-06-10T10:10:14;32.40;38.40
45843;DHT22;31563;51.744;8.252;2023-06-10T10:12:43;32.50;38.50
45843;DHT22;31563;51.744;8.252;2023-06-10T10:15:13;32.50;38.50
45843;DHT22;31563;51.744;8.252;2023-06-10T10:17:46;32.60;38.60
45843;DHT22;31563;51.744;8.252;2023-06-10T10:20:20;32.60;38.60
45843;DHT22;31563;51.744;8.252;2023-06-10T10:22:51;32.70;38.60
45843;DHT22;31563;51.744;8.252;2023-06-10T10:25:23;32.80;38.70
45843;DHT22;31563;51.744;8.252;2023-06-10T10:28:06;32.80;38.60
45843;DHT22;31563;51.744;8.252;2023-06-10T10:30:41;32.90;38.80
45843;DHT22;31563;51.744;8.252;2023-06-10T10:33:12;33.10;38.70
45843;DHT22;31563;51.744;8.252;2023-06-10T10:35:44;33.10;38.40
45843;DHT22;31563;51.744;8.252;2023-06-10T10:38:15;33.00;38.40
45843;DHT22;31563;51.744;8.252;2023-06-10T10:40:45;33.00;38.70
45843;DHT22;31563;51.744;8.252;2023-06-10T10:43:14;33.10;38.80
45843;DHT22;31563;51.744;8.252;2023-06-10T10:45:45;33.10;38.60
45843;DHT22;31563;51.744;8.252;2023-06-10T10:48:14;33.20;38.70
45843;DHT22;31563;51.744;8.252;2023-06-10T10:50:42;33.20;38.60
45843;DHT22;31563;51.744;8.252;2023-06-10T10:53:10;33.30;38.60
45843;DHT22;31563;51.744;8.252;2023-06-10T10:55:40;33.20;38.50
45843;DHT22;31563;51.744;8.252;2023-06-10T10:58:13;33.20;38.50
45843;DHT22;31563;51.744;8.252;2023-06-10T11:00:44;33.10;38.60
45843;DHT22;31563;51.744;8.252;2023-06-10T11:03:13;33.10;38.60
45843;DHT22;31563;51.744;8.252;2023-06-10T11:05:45;33.10;38.80
45843;DHT22;31563;51.744;8.252;2023-06-10T11:08:45;33.10;38.90
45843;DHT22;31563;51.744;8.252;2023-06-10T11:11:19;33.10;39.20
45843;DHT22;31563;51.744;8.252;2023-06-10T11:13:58;33.10;39.30
45843;DHT22;31563;51.744;8.252;2023-06-10T11:16:28;33.20;39.40
45843;DHT22;31563;51.744;8.252;2023-06-10T11:18:56;33.20;39.30
45843;DHT22;31563;51.744;8.252;2023-06-10T11:21:25;33.30;40.00
45843;DHT22;31563;51.744;8.252;2023-06-10T11:23:58;33.30;39.30
45843;DHT22;31563;51.744;8.252;2023-06-10T11:26:33;33.40;39.30
45843;DHT22;31563;51.744;8.252;2023-06-10T11:29:07;33.50;39.20
45843;DHT22;31563;51.744;8.252;2023-06-10T11:31:44;33.50;38.90
45843;DHT22;31563;51.744;8.252;2023-06-10T11:34:13;33.60;38.90
45843;DHT22;31563;51.744;8.252;2023-06-10T11:36:42;33.60;38.80
45843;DHT22;31563;51.744;8.252;2023-06-10T11:39:12;33.60;39.00
45843;DHT22;31563;51.744;8.252;2023-06-10T11:41:42;33.60;38.90
45843;DHT22;31563;51.744;8.252;2023-06-10T11:44:12;33.60;38.80
45843;DHT22;31563;51.744;8.252;2023-06-10T11:46:45;33.60;39.40
45843;DHT22;31563;51.744;8.252;2023-06-10T11:49:15;33.60;38.60
45843;DHT22;31563;51.744;8.252;2023-06-10T11:51:43;33.60;38.40
45843;DHT22;31563;51.744;8.252;2023-06-10T11:54:16;33.60;38.40
45843;DHT22;31563;51.744;8.252;2023-06-10T11:56:47;33.70;38.50
45843;DHT22;31563;51.744;8.252;2023-06-10T11:59:15;33.70;38.20
45843;DHT22;31563;51.744;8.252;2023-06-10T12:01:45;33.70;38.30
45843;DHT22;31563;51.744;8.252;2023-06-10T12:04:15;33.80;38.30
45843;DHT22;31563;51.744;8.252;2023-06-10T12:06:46;33.80;38.20
45843;DHT22;31563;51.744;8.252;2023-06-10T12:09:17;33.90;38.20
45843;DHT22;31563;51.744;8.252;2023-06-10T12:11:55;33.90;38.00
45843;DHT22;31563;51.744;8.252;2023-06-10T12:14:53;33.90;37.90
45843;DHT22;31563;51.744;8.252;2023-06-10T12:17:35;33.90;38.00
45843;DHT22;31563;51.744;8.252;2023-06-10T12:20:06;34.00;37.70
45843;DHT22;31563;51.744;8.252;2023-06-10T12:22:39;34.00;37.80
45843;DHT22;31563;51.744;8.252;2023-06-10T12:25:08;34.10;37.90
45843;DHT22;31563;51.744;8.252;2023-06-10T12:27:41;34.10;37.80
45843;DHT22;31563;51.744;8.252;2023-06-10T12:30:19;34.10;38.00
45843;DHT22;31563;51.744;8.252;2023-06-10T12:32:48;34.20;38.10
45843;DHT22;31563;51.744;8.252;2023-06-10T12:35:18;34.30;38.10
45843;DHT22;31563;51.744;8.252;2023-06-10T12:37:55;34.40;38.00
45843;DHT22;31563;51.744;8.252;2023-06-10T12:40:28;34.50;38.10
45843;DHT22;31563;51.744;8.252;2023-06-10T12:42:58;34.60;38.10
45843;DHT22;31563;51.744;8.252;2023-06-10T12:45:27;34.60;37.90
45843;DHT22;31563;51.744;8.252;2023-06-10T12:48:06;34.70;37.70
45843;DHT22;31563;51.744;8.252;2023-06-10T12:50:36;34.70;37.70
45843;DHT22;31563;51.744;8.252;2023-06-10T12:53:05;34.80;37.60
45843;DHT22;31563;51.744;8.252;2023-06-10T12:55:34;34.80;37.50
45843;DHT22;31563;51.744;8.252;2023-06-10T12:58:04;34.80;37.20
45843;DHT22;31563;51.744;8.252;2023-06-10T13:00:32;34.90;37.20
45843;DHT22;31563;51.744;8.252;2023-06-10T13:03:02;34.90;37.10
45843;DHT22;31563;51.744;8.252;2023-06-10T13:05:33;34.90;37.20
45843;DHT22;31563;51.744;8.252;2023-06-10T13:08:02;34.90;37.00
45843;DHT22;31563;51.744;8.252;2023-06-10T13:10:30;34.90;36.70
45843;DHT22;31563;51.744;8.252;2023-06-10T13:13:00;34.90;36.90
45843;DHT22;31563;51.744;8.252;2023-06-10T13:15:29;34.90;37.00
45843;DHT22;31563;51.744;8.252;2023-06-10T13:17:57;34.90;37.10
45843;DHT22;31563;51.744;8.252;2023-06-10T13:20:26;35.00;37.10
45843;DHT22;31563;51.744;8.252;2023-06-10T13:22:54;35.10;37.00
45843;DHT22;31563;51.744;8.252;2023-06-10T13:25:22;35.20;37.10
45843;DHT22;31563;51.744;8.252;2023-06-10T13:27:50;35.30;36.90
45843;DHT22;31563;51.744;8.252;2023-06-10T13:30:19;35.50;36.90
45843;DHT22;31563;51.744;8.252;2023-06-10T13:32:48;35.60;36.90
45843;DHT22;31563;51.744;8.252;2023-06-10T13:35:17;35.70;36.80
45843;DHT22;31563;51.744;8.252;2023-06-10T13:37:45;35.80;36.30
45843;DHT22;31563;51.744;8.252;2023-06-10T13:40:13;35.90;36.40
45843;DHT22;31563;51.744;8.252;2023-06-10T13:42:42;36.00;37.00
45843;DHT22;31563;51.744;8.252;2023-06-10T13:45:11;36.20;36.20
45843;DHT22;31563;51.744;8.252;2023-06-10T13:47:40;36.20;36.00
45843;DHT22;31563;51.744;8.252;2023-06-10T13:50:10;36.30;35.90
45843;DHT22;31563;51.744;8.252;2023-06-10T13:52:38;36.40;35.90
45843;DHT22;31563;51.744;8.252;2023-06-10T13:55:07;36.50;35.80
45843;DHT22;31563;51.744;8.252;2023-06-10T13:57:35;36.60;35.70
45843;DHT22;31563;51.744;8.252;2023-06-10T14:00:05;36.60;35.50
45843;DHT22;31563;51.744;8.252;2023-06-10T14:02:33;36.70;35.50
45843;DHT22;31563;51.744;8.252;2023-06-10T14:05:01;36.80;35.20
45843;DHT22;31563;51.744;8.252;2023-06-10T14:07:31;36.70;35.10
45843;DHT22;31563;51.744;8.252;2023-06-10T14:09:59;36.80;35.10
45843;DHT22;31563;51.744;8.252;2023-06-10T14:12:27;36.80;35.10
45843;DHT22;31563;51.744;8.252;2023-06-10T14:14:55;36.80;35.20
45843;DHT22;31563;51.744;8.252;2023-06-10T14:17:23;36.80;35.10
45843;DHT22;31563;51.744;8.252;2023-06-10T14:19:52;36.90;35.20
45843;DHT22;31563;51.744;8.252;2023-06-10T14:22:20;36.90;35.30
45843;DHT22;31563;51.744;8.252;2023-06-10T14:24:49;36.90;35.30
45843;DHT22;31563;51.744;8.252;2023-06-10T14:27:17;37.00;35.30
45843;DHT22;31563;51.744;8.252;2023-06-10T14:29:46;37.00;35.40
45843;DHT22;31563;51.744;8.252;2023-06-10T14:32:15;37.10;35.60
45843;DHT22;31563;51.744;8.252;2023-06-10T14:34:43;37.20;35.50
45843;DHT22;31563;51.744;8.252;2023-06-10T14:37:13;37.30;35.40
45843;DHT22;31563;51.744;8.252;2023-06-10T14:39:41;37.40;35.30
45843;DHT22;31563;51.744;8.252;2023-06-10T14:42:11;37.50;34.80
45843;DHT22;31563;51.744;8.252;2023-06-10T14:44:39;37.60;35.00
45843;DHT22;31563;51.744;8.252;2023-06-10T14:47:07;37.70;35.00
45843;DHT22;31563;51.744;8.252;2023-06-10T14:49:35;37.80;35.00
45843;DHT22;31563;51.744;8.252;2023-06-10T14:52:04;37.90;35.00
45843;DHT22;31563;51.744;8.252;2023-06-10T14:54:32;38.00;34.70
45843;DHT22;31563;51.744;8.252;2023-06-10T14:57:00;38.10;35.30
45843;DHT22;31563;51.744;8.252;2023-06-10T14:59:30;38.20;34.70
45843;DHT22;31563;51.744;8.252;2023-06-10T15:01:58;38.20;34.60
45843;DHT22;31563;51.744;8.252;2023-06-10T15:04:28;38.30;34.60
45843;DHT22;31563;51.744;8.252;2023-06-10T15:06:56;38.40;34.50
45843;DHT22;31563;51.744;8.252;2023-06-10T15:09:24;38.40;34.50
45843;DHT22;31563;51.744;8.252;2023-06-10T15:11:52;38.50;34.50
45843;DHT22;31563;51.744;8.252;2023-06-10T15:14:21;38.50;34.30
45843;DHT22;31563;51.744;8.252;2023-06-10T15:16:50;38.60;34.40
45843;DHT22;31563;51.744;8.252;2023-06-10T15:19:18;38.70;34.30
45843;DHT22;31563;51.744;8.252;2023-06-10T15:21:46;38.70;34.30
45843;DHT22;31563;51.744;8.252;2023-06-10T15:24:15;38.70;34.20
45843;DHT22;31563;51.744;8.252;2023-06-10T15:26:43;38.70;34.30
45843;DHT22;31563;51.744;8.252;2023-06-10T15:29:11;38.80;34.40
45843;DHT22;31563;51.744;8.252;2023-06-10T15:31:40;38.80;34.30
45843;DHT22;31563;51.744;8.252;2023-06-10T15:34:09;38.90;34.40
45843;DHT22;31563;51.744;8.252;2023-06-10T15:36:37;38.90;34.40
45843;DHT22;31563;51.744;8.252;2023-06-10T15:39:06;38.90;34.30
45843;DHT22;31563;51.744;8.252;2023-06-10T15:41:34;39.00;34.30
45843;DHT22;31563;51.744;8.252;2023-06-10T15:44:03;38.90;34.20